sensor_id;sensor_type;location;lat;lon;timestamp;temperature;humidity
80495;DHT22;69819;48.798;11.770;2023-07-29T00:00:57;22.80;56.60
80495;DHT22;69819;48.798;11.770;2023-07-29T00:03:23;22.80;56.60
80495;DHT22;69819;48.798;11.770;2023-07-29T00:05:49;22.80;56.60
80495;DHT22;69819;48.798;11.770;2023-07-29T00:08:15;22.80;56.60
80495;DHT22;69819;48.798;11.770;2023-07-29T00:10:41;22.80;56.70
80495;DHT22;69819;48.798;11.770;2023-07-29T00:13:07;22.80;56.60
80495;DHT22;69819;48.798;11.770;2023-07-29T00:15:33;22.80;56.70
80495;DHT22;69819;48.798;11.770;2023-07-29T00:18:00;22.80;56.70
80495;DHT22;69819;48.798;11.770;2023-07-29T00:20:26;22.80;56.70
80495;DHT22;69819;48.798;11.770;2023-07-29T00:22:52;22.80;56.70
80495;DHT22;69819;48.798;11.770;2023-07-29T00:25:21;22.80;56.70
80495;DHT22;69819;48.798;11.770;2023-07-29T00:27:47;22.80;56.70
80495;DHT22;69819;48.798;11.770;2023-07-29T00:30:13;22.80;56.70
80495;DHT22;69819;48.798;11.770;2023-07-29T00:32:39;22.80;56.70
80495;DHT22;69819;48.798;11.770;2023-07-29T00:35:05;22.80;56.80
80495;DHT22;69819;48.798;11.770;2023-07-29T00:37:32;22.80;56.90
80495;DHT22;69819;48.798;11.770;2023-07-29T00:39:58;22.80;56.90
80495;DHT22;69819;48.798;11.770;2023-07-29T00:42:24;22.80;56.80
80495;DHT22;69819;48.798;11.770;2023-07-29T00:44:50;22.80;56.90
80495;DHT22;69819;48.798;11.770;2023-07-29T00:47:16;22.80;56.90
80495;DHT22;69819;48.798;11.770;2023-07-29T00:49:44;22.80;56.90
80495;DHT22;69819;48.798;11.770;2023-07-29T00:52:11;22.80;56.90
80495;DHT22;69819;48.798;11.770;2023-07-29T00:54:39;22.70;56.80
80495;DHT22;69819;48.798;11.770;2023-07-29T00:57:08;22.70;56.90
80495;DHT22;69819;48.798;11.770;2023-07-29T00:59:35;22.70;57.00
80495;DHT22;69819;48.798;11.770;2023-07-29T01:02:02;22.70;57.00
80495;DHT22;69819;48.798;11.770;2023-07-29T01:04:28;22.60;57.00
80495;DHT22;69819;48.798;11.770;2023-07-29T01:07:59;22.60;57.00
80495;DHT22;69819;48.798;11.770;2023-07-29T01:13:17;22.60;57.40
80495;DHT22;69819;48.798;11.770;2023-07-29T01:16:02;22.60;57.50
80495;DHT22;69819;48.798;11.770;2023-07-29T01:18:36;22.50;57.50
80495;DHT22;69819;48.798;11.770;2023-07-29T01:21:07;22.60;57.10
80495;DHT22;69819;48.798;11.770;2023-07-29T01:23:34;22.50;57.20
80495;DHT22;69819;48.798;11.770;2023-07-29T01:26:02;22.50;57.00
80495;DHT22;69819;48.798;11.770;2023-07-29T01:28:29;22.50;57.00
80495;DHT22;69819;48.798;11.770;2023-07-29T01:31:12;22.40;57.00
80495;DHT22;69819;48.798;11.770;2023-07-29T01:33:58;22.40;57.30
80495;DHT22;69819;48.798;11.770;2023-07-29T01:36:32;22.40;57.20
80495;DHT22;69819;48.798;11.770;2023-07-29T01:39:01;22.30;57.00
80495;DHT22;69819;48.798;11.770;2023-07-29T01:41:28;22.20;56.90
80495;DHT22;69819;48.798;11.770;2023-07-29T01:43:56;22.20;57.00
80495;DHT22;69819;48.798;11.770;2023-07-29T01:46:23;22.10;57.00
80495;DHT22;69819;48.798;11.770;2023-07-29T01:48:49;22.10;57.00
80495;DHT22;69819;48.798;11.770;2023-07-29T01:51:15;22.00;57.00
80495;DHT22;69819;48.798;11.770;2023-07-29T01:53:40;22.00;57.00
80495;DHT22;69819;48.798;11.770;2023-07-29T01:56:06;21.90;57.00
80495;DHT22;69819;48.798;11.770;2023-07-29T01:58:32;21.80;57.00
80495;DHT22;69819;48.798;11.770;2023-07-29T02:00:58;21.80;57.10
80495;DHT22;69819;48.798;11.770;2023-07-29T02:03:24;21.80;57.20
80495;DHT22;69819;48.798;11.770;2023-07-29T02:05:50;21.70;57.20
80495;DHT22;69819;48.798;11.770;2023-07-29T02:08:16;21.70;57.20
80495;DHT22;69819;48.798;11.770;2023-07-29T02:10:42;21.60;57.30
80495;DHT22;69819;48.798;11.770;2023-07-29T02:13:10;21.60;57.30
80495;DHT22;69819;48.798;11.770;2023-07-29T02:15:37;21.50;57.30
80495;DHT22;69819;48.798;11.770;2023-07-29T02:18:03;21.50;57.40
80495;DHT22;69819;48.798;11.770;2023-07-29T02:20:29;21.40;57.30
80495;DHT22;69819;48.798;11.770;2023-07-29T02:22:55;21.40;57.40
80495;DHT22;69819;48.798;11.770;2023-07-29T02:25:21;21.30;57.30
80495;DHT22;69819;48.798;11.770;2023-07-29T02:27:47;21.30;57.30
80495;DHT22;69819;48.798;11.770;2023-07-29T02:30:12;21.20;57.20
80495;DHT22;69819;48.798;11.770;2023-07-29T02:32:38;21.20;57.30
80495;DHT22;69819;48.798;11.770;2023-07-29T02:35:05;21.10;57.30
80495;DHT22;69819;48.798;11.770;2023-07-29T02:37:31;21.10;57.40
80495;DHT22;69819;48.798;11.770;2023-07-29T02:39:57;21.00;57.30
80495;DHT22;69819;48.798;11.770;2023-07-29T02:42:23;21.00;57.40
80495;DHT22;69819;48.798;11.770;2023-07-29T02:44:48;21.00;57.50
80495;DHT22;69819;48.798;11.770;2023-07-29T02:47:14;20.90;57.60
80495;DHT22;69819;48.798;11.770;2023-07-29T02:49:40;20.90;57.60
80495;DHT22;69819;48.798;11.770;2023-07-29T02:52:06;20.90;57.70
80495;DHT22;69819;48.798;11.770;2023-07-29T02:54:32;20.80;57.70
80495;DHT22;69819;48.798;11.770;2023-07-29T02:56:58;20.80;57.70
80495;DHT22;69819;48.798;11.770;2023-07-29T02:59:24;20.80;57.80
80495;DHT22;69819;48.798;11.770;2023-07-29T03:01:50;20.80;57.80
80495;DHT22;69819;48.798;11.770;2023-07-29T03:04:16;20.70;57.70
80495;DHT22;69819;48.798;11.770;2023-07-29T03:06:41;20.70;57.80
80495;DHT22;69819;48.798;11.770;2023-07-29T03:09:08;20.60;57.70
80495;DHT22;69819;48.798;11.770;2023-07-29T03:11:34;20.60;57.80
80495;DHT22;69819;48.798;11.770;2023-07-29T03:14:00;20.60;57.90
80495;DHT22;69819;48.798;11.770;2023-07-29T03:16:26;20.60;57.90
80495;DHT22;69819;48.798;11.770;2023-07-29T03:18:52;20.50;57.80
80495;DHT22;69819;48.798;11.770;2023-07-29T03:21:18;20.50;57.90
80495;DHT22;69819;48.798;11.770;2023-07-29T03:23:43;20.40;57.90
80495;DHT22;69819;48.798;11.770;2023-07-29T03:26:09;20.40;57.80
80495;DHT22;69819;48.798;11.770;2023-07-29T03:28:40;20.40;58.00
80495;DHT22;69819;48.798;11.770;2023-07-29T03:31:07;20.40;58.00
80495;DHT22;69819;48.798;11.770;2023-07-29T03:33:34;20.40;58.00
80495;DHT22;69819;48.798;11.770;2023-07-29T03:36:00;20.30;58.10
80495;DHT22;69819;48.798;11.770;2023-07-29T03:38:26;20.30;58.20
80495;DHT22;69819;48.798;11.770;2023-07-29T03:40:53;20.30;58.30
80495;DHT22;69819;48.798;11.770;2023-07-29T03:43:19;20.30;58.30
80495;DHT22;69819;48.798;11.770;2023-07-29T03:45:45;20.30;58.30
80495;DHT22;69819;48.798;11.770;2023-07-29T03:48:11;20.30;58.40
80495;DHT22;69819;48.798;11.770;2023-07-29T03:50:37;20.40;58.70
80495;DHT22;69819;48.798;11.770;2023-07-29T03:53:03;20.30;58.70
80495;DHT22;69819;48.798;11.770;2023-07-29T03:55:30;20.40;58.90
80495;DHT22;69819;48.798;11.770;2023-07-29T03:57:57;20.40;59.00
80495;DHT22;69819;48.798;11.770;2023-07-29T04:00:24;20.50;59.20
80495;DHT22;69819;48.798;11.770;2023-07-29T04:02:50;20.60;59.40
80495;DHT22;69819;48.798;11.770;2023-07-29T04:05:16;20.60;59.40
80495;DHT22;69819;48.798;11.770;2023-07-29T04:07:43;20.70;59.50
80495;DHT22;69819;48.798;11.770;2023-07-29T04:10:09;20.80;60.00
80495;DHT22;69819;48.798;11.770;2023-07-29T04:12:35;21.00;60.50
80495;DHT22;69819;48.798;11.770;2023-07-29T04:15:03;21.20;61.00
80495;DHT22;69819;48.798;11.770;2023-07-29T04:17:34;21.60;62.10
80495;DHT22;69819;48.798;11.770;2023-07-29T04:19:59;21.90;61.50
80495;DHT22;69819;48.798;11.770;2023-07-29T04:22:25;22.40;61.00
80495;DHT22;69819;48.798;11.770;2023-07-29T04:24:51;22.70;60.40
80495;DHT22;69819;48.798;11.770;2023-07-29T04:27:17;23.00;60.30
80495;DHT22;69819;48.798;11.770;2023-07-29T04:29:43;23.40;60.50
80495;DHT22;69819;48.798;11.770;2023-07-29T04:32:09;23.80;60.10
80495;DHT22;69819;48.798;11.770;2023-07-29T04:34:35;24.20;59.40
80495;DHT22;69819;48.798;11.770;2023-07-29T04:37:01;24.60;58.90
80495;DHT22;69819;48.798;11.770;2023-07-29T04:39:26;24.80;58.50
80495;DHT22;69819;48.798;11.770;2023-07-29T04:41:52;25.00;58.20
80495;DHT22;69819;48.798;11.770;2023-07-29T04:44:18;25.20;57.80
80495;DHT22;69819;48.798;11.770;2023-07-29T04:46:44;25.30;57.30
80495;DHT22;69819;48.798;11.770;2023-07-29T04:49:10;25.40;57.10
80495;DHT22;69819;48.798;11.770;2023-07-29T04:51:36;25.40;56.40
80495;DHT22;69819;48.798;11.770;2023-07-29T04:54:02;25.40;56.10
80495;DHT22;69819;48.798;11.770;2023-07-29T04:56:28;25.30;56.00
80495;DHT22;69819;48.798;11.770;2023-07-29T04:58:54;25.20;55.90
80495;DHT22;69819;48.798;11.770;2023-07-29T05:01:20;25.20;56.10
80495;DHT22;69819;48.798;11.770;2023-07-29T05:03:46;25.10;56.10
80495;DHT22;69819;48.798;11.770;2023-07-29T05:06:12;25.10;56.90
80495;DHT22;69819;48.798;11.770;2023-07-29T05:08:38;25.20;57.20
80495;DHT22;69819;48.798;11.770;2023-07-29T05:11:04;25.30;57.20
80495;DHT22;69819;48.798;11.770;2023-07-29T05:13:29;25.50;56.90
80495;DHT22;69819;48.798;11.770;2023-07-29T05:15:55;25.70;56.50
80495;DHT22;69819;48.798;11.770;2023-07-29T05:18:21;25.70;56.20
80495;DHT22;69819;48.798;11.770;2023-07-29T05:20:47;25.80;56.10
80495;DHT22;69819;48.798;11.770;2023-07-29T05:23:13;26.00;56.40
80495;DHT22;69819;48.798;11.770;2023-07-29T05:25:39;26.10;56.70
80495;DHT22;69819;48.798;11.770;2023-07-29T05:28:05;26.50;57.00
80495;DHT22;69819;48.798;11.770;2023-07-29T05:30:33;26.90;57.30
80495;DHT22;69819;48.798;11.770;2023-07-29T05:33:03;27.40;58.30
80495;DHT22;69819;48.798;11.770;2023-07-29T05:35:30;28.20;58.00
80495;DHT22;69819;48.798;11.770;2023-07-29T05:37:56;29.10;58.10
80495;DHT22;69819;48.798;11.770;2023-07-29T05:40:22;30.10;58.40
80495;DHT22;69819;48.798;11.770;2023-07-29T05:42:48;31.10;57.00
80495;DHT22;69819;48.798;11.770;2023-07-29T05:45:13;32.00;55.20
80495;DHT22;69819;48.798;11.770;2023-07-29T05:47:39;32.70;53.30
80495;DHT22;69819;48.798;11.770;2023-07-29T05:50:06;33.20;51.80
80495;DHT22;69819;48.798;11.770;2023-07-29T05:52:32;33.50;50.50
80495;DHT22;69819;48.798;11.770;2023-07-29T05:54:58;33.60;49.40
80495;DHT22;69819;48.798;11.770;2023-07-29T05:57:24;33.60;48.70
80495;DHT22;69819;48.798;11.770;2023-07-29T05:59:50;33.50;48.40
80495;DHT22;69819;48.798;11.770;2023-07-29T06:02:16;33.40;48.00
80495;DHT22;69819;48.798;11.770;2023-07-29T06:04:42;33.20;47.80
80495;DHT22;69819;48.798;11.770;2023-07-29T06:07:08;33.10;47.70
80495;DHT22;69819;48.798;11.770;2023-07-29T06:09:34;32.90;47.60
80495;DHT22;69819;48.798;11.770;2023-07-29T06:12:00;32.70;47.50
80495;DHT22;69819;48.798;11.770;2023-07-29T06:14:26;32.40;47.50
80495;DHT22;69819;48.798;11.770;2023-07-29T06:16:52;32.30;47.70
80495;DHT22;69819;48.798;11.770;2023-07-29T06:19:19;32.20;47.70
80495;DHT22;69819;48.798;11.770;2023-07-29T06:21:46;32.10;47.80
80495;DHT22;69819;48.798;11.770;2023-07-29T06:24:12;32.10;47.70
80495;DHT22;69819;48.798;11.770;2023-07-29T06:26:38;32.00;47.70
80495;DHT22;69819;48.798;11.770;2023-07-29T06:29:04;31.90;47.60
80495;DHT22;69819;48.798;11.770;2023-07-29T06:31:30;31.80;47.50
80495;DHT22;69819;48.798;11.770;2023-07-29T06:33:58;31.60;47.50
80495;DHT22;69819;48.798;11.770;2023-07-29T06:36:24;31.50;47.50
80495;DHT22;69819;48.798;11.770;2023-07-29T06:38:50;31.30;47.40
80495;DHT22;69819;48.798;11.770;2023-07-29T06:41:16;31.10;47.50
80495;DHT22;69819;48.798;11.770;2023-07-29T06:43:42;30.90;47.60
80495;DHT22;69819;48.798;11.770;2023-07-29T06:46:08;30.80;47.70
80495;DHT22;69819;48.798;11.770;2023-07-29T06:48:34;30.50;47.80
80495;DHT22;69819;48.798;11.770;2023-07-29T06:50:59;30.30;47.90
80495;DHT22;69819;48.798;11.770;2023-07-29T06:53:29;30.10;48.10
80495;DHT22;69819;48.798;11.770;2023-07-29T06:55:55;29.90;48.30
80495;DHT22;69819;48.798;11.770;2023-07-29T06:58:21;29.70;48.50
80495;DHT22;69819;48.798;11.770;2023-07-29T07:00:47;29.60;48.70
80495;DHT22;69819;48.798;11.770;2023-07-29T07:03:13;29.50;48.90
80495;DHT22;69819;48.798;11.770;2023-07-29T07:05:39;29.50;49.10
80495;DHT22;69819;48.798;11.770;2023-07-29T07:08:05;29.40;49.20
80495;DHT22;69819;48.798;11.770;2023-07-29T07:10:31;29.30;49.10
80495;DHT22;69819;48.798;11.770;2023-07-29T07:12:59;29.30;49.20
80495;DHT22;69819;48.798;11.770;2023-07-29T07:15:25;29.20;49.40
80495;DHT22;69819;48.798;11.770;2023-07-29T07:17:51;29.20;49.70
80495;DHT22;69819;48.798;11.770;2023-07-29T07:20:17;29.30;50.10
80495;DHT22;69819;48.798;11.770;2023-07-29T07:22:43;29.50;50.60
80495;DHT22;69819;48.798;11.770;2023-07-29T07:25:09;29.70;50.80
80495;DHT22;69819;48.798;11.770;2023-07-29T07:27:36;30.00;50.80
80495;DHT22;69819;48.798;11.770;2023-07-29T07:30:03;30.20;50.40
80495;DHT22;69819;48.798;11.770;2023-07-29T07:32:29;30.50;50.10
80495;DHT22;69819;48.798;11.770;2023-07-29T07:34:55;30.70;49.70
80495;DHT22;69819;48.798;11.770;2023-07-29T07:37:21;30.80;49.40
80495;DHT22;69819;48.798;11.770;2023-07-29T07:39:47;30.80;49.10
80495;DHT22;69819;48.798;11.770;2023-07-29T07:42:13;30.90;48.90
80495;DHT22;69819;48.798;11.770;2023-07-29T07:44:39;30.90;48.60
80495;DHT22;69819;48.798;11.770;2023-07-29T07:47:05;30.80;48.10
80495;DHT22;69819;48.798;11.770;2023-07-29T07:49:31;30.70;47.70
80495;DHT22;69819;48.798;11.770;2023-07-29T07:51:57;30.60;47.60
80495;DHT22;69819;48.798;11.770;2023-07-29T07:54:23;30.40;47.70
80495;DHT22;69819;48.798;11.770;2023-07-29T07:56:49;30.10;47.70
80495;DHT22;69819;48.798;11.770;2023-07-29T07:59:15;29.90;48.00
80495;DHT22;69819;48.798;11.770;2023-07-29T08:01:41;29.60;48.30
80495;DHT22;69819;48.798;11.770;2023-07-29T08:04:07;29.40;48.70
80495;DHT22;69819;48.798;11.770;2023-07-29T08:06:33;29.20;49.00
80495;DHT22;69819;48.798;11.770;2023-07-29T08:08:59;29.10;49.30
80495;DHT22;69819;48.798;11.770;2023-07-29T08:11:25;28.90;49.40
80495;DHT22;69819;48.798;11.770;2023-07-29T08:13:51;28.80;49.40
80495;DHT22;69819;48.798;11.770;2023-07-29T08:16:18;28.60;49.40
80495;DHT22;69819;48.798;11.770;2023-07-29T08:18:43;28.40;49.50
80495;DHT22;69819;48.798;11.770;2023-07-29T08:21:10;28.20;49.70
80495;DHT22;69819;48.798;11.770;2023-07-29T08:23:36;27.90;49.80
80495;DHT22;69819;48.798;11.770;2023-07-29T08:26:04;27.70;50.00
80495;DHT22;69819;48.798;11.770;2023-07-29T08:28:32;27.50;50.40
80495;DHT22;69819;48.798;11.770;2023-07-29T08:31:00;27.30;51.30
80495;DHT22;69819;48.798;11.770;2023-07-29T08:33:26;27.00;52.20
80495;DHT22;69819;48.798;11.770;2023-07-29T08:35:52;26.80;52.60
80495;DHT22;69819;48.798;11.770;2023-07-29T08:38:19;26.60;53.10
80495;DHT22;69819;48.798;11.770;2023-07-29T08:43:44;26.00;53.90
80495;DHT22;69819;48.798;11.770;2023-07-29T08:46:32;25.80;54.60
80495;DHT22;69819;48.798;11.770;2023-07-29T08:48:59;25.50;54.70
80495;DHT22;69819;48.798;11.770;2023-07-29T08:51:27;25.40;55.60
80495;DHT22;69819;48.798;11.770;2023-07-29T08:53:55;25.30;56.30
80495;DHT22;69819;48.798;11.770;2023-07-29T08:56:21;25.20;57.10
80495;DHT22;69819;48.798;11.770;2023-07-29T08:58:48;25.30;57.70
80495;DHT22;69819;48.798;11.770;2023-07-29T09:01:15;25.30;58.10
80495;DHT22;69819;48.798;11.770;2023-07-29T09:03:41;25.50;58.30
80495;DHT22;69819;48.798;11.770;2023-07-29T09:06:08;25.90;59.00
80495;DHT22;69819;48.798;11.770;2023-07-29T09:08:34;26.30;58.30
80495;DHT22;69819;48.798;11.770;2023-07-29T09:11:01;26.70;57.60
80495;DHT22;69819;48.798;11.770;2023-07-29T09:13:27;27.10;56.90
80495;DHT22;69819;48.798;11.770;2023-07-29T09:15:55;27.50;56.30
80495;DHT22;69819;48.798;11.770;2023-07-29T09:18:23;27.80;55.90
80495;DHT22;69819;48.798;11.770;2023-07-29T09:20:51;28.20;55.50
80495;DHT22;69819;48.798;11.770;2023-07-29T09:23:18;28.50;55.30
80495;DHT22;69819;48.798;11.770;2023-07-29T09:25:46;28.90;55.40
80495;DHT22;69819;48.798;11.770;2023-07-29T09:28:14;29.40;55.40
80495;DHT22;69819;48.798;11.770;2023-07-29T09:30:43;30.10;55.70
80495;DHT22;69819;48.798;11.770;2023-07-29T09:33:11;30.70;55.00
80495;DHT22;69819;48.798;11.770;2023-07-29T09:35:38;31.40;54.30
80495;DHT22;69819;48.798;11.770;2023-07-29T09:38:05;32.00;53.30
80495;DHT22;69819;48.798;11.770;2023-07-29T09:40:40;32.40;51.70
80495;DHT22;69819;48.798;11.770;2023-07-29T09:43:09;32.80;50.40
80495;DHT22;69819;48.798;11.770;2023-07-29T09:45:36;33.10;50.30
80495;DHT22;69819;48.798;11.770;2023-07-29T09:48:04;33.20;49.80
80495;DHT22;69819;48.798;11.770;2023-07-29T09:50:35;33.30;49.10
80495;DHT22;69819;48.798;11.770;2023-07-29T09:53:01;33.40;48.50
80495;DHT22;69819;48.798;11.770;2023-07-29T09:55:28;33.20;47.70
80495;DHT22;69819;48.798;11.770;2023-07-29T09:57:59;33.10;47.40
80495;DHT22;69819;48.798;11.770;2023-07-29T10:00:33;32.80;46.90
80495;DHT22;69819;48.798;11.770;2023-07-29T10:03:00;32.40;47.00
80495;DHT22;69819;48.798;11.770;2023-07-29T10:05:27;32.10;47.20
80495;DHT22;69819;48.798;11.770;2023-07-29T10:07:55;31.70;47.60
80495;DHT22;69819;48.798;11.770;2023-07-29T10:10:22;31.40;48.10
80495;DHT22;69819;48.798;11.770;2023-07-29T10:12:48;31.20;48.60
80495;DHT22;69819;48.798;11.770;2023-07-29T10:15:15;31.00;49.70
80495;DHT22;69819;48.798;11.770;2023-07-29T10:17:42;31.10;50.80
80495;DHT22;69819;48.798;11.770;2023-07-29T10:20:10;31.20;50.40
80495;DHT22;69819;48.798;11.770;2023-07-29T10:22:39;31.50;50.40
80495;DHT22;69819;48.798;11.770;2023-07-29T10:25:17;31.70;50.40
80495;DHT22;69819;48.798;11.770;2023-07-29T10:27:56;32.10;50.00
80495;DHT22;69819;48.798;11.770;2023-07-29T10:30:32;32.40;49.60
80495;DHT22;69819;48.798;11.770;2023-07-29T10:33:02;32.70;49.60
80495;DHT22;69819;48.798;11.770;2023-07-29T10:35:31;33.10;49.20
80495;DHT22;69819;48.798;11.770;2023-07-29T10:37:59;33.40;48.90
80495;DHT22;69819;48.798;11.770;2023-07-29T10:40:43;33.70;48.30
80495;DHT22;69819;48.798;11.770;2023-07-29T10:43:12;34.00;47.20
80495;DHT22;69819;48.798;11.770;2023-07-29T10:45:43;34.20;47.20
80495;DHT22;69819;48.798;11.770;2023-07-29T10:51:22;34.50;46.00
80495;DHT22;69819;48.798;11.770;2023-07-29T10:54:11;34.50;45.50
80495;DHT22;69819;48.798;11.770;2023-07-29T10:56:48;34.60;45.70
80495;DHT22;69819;48.798;11.770;2023-07-29T11:01:51;34.60;45.10
80495;DHT22;69819;48.798;11.770;2023-07-29T11:10:03;34.30;44.20
80495;DHT22;69819;48.798;11.770;2023-07-29T11:15:23;34.10;44.40
80495;DHT22;69819;48.798;11.770;2023-07-29T11:22:56;34.00;45.20
80495;DHT22;69819;48.798;11.770;2023-07-29T11:25:25;34.00;45.00
80495;DHT22;69819;48.798;11.770;2023-07-29T11:27:54;34.10;45.00
80495;DHT22;69819;48.798;11.770;2023-07-29T11:30:21;34.20;44.70
80495;DHT22;69819;48.798;11.770;2023-07-29T11:32:48;34.30;44.70
80495;DHT22;69819;48.798;11.770;2023-07-29T11:35:17;34.40;44.50
80495;DHT22;69819;48.798;11.770;2023-07-29T11:37:48;34.50;44.10
80495;DHT22;69819;48.798;11.770;2023-07-29T11:40:19;34.60;43.90
80495;DHT22;69819;48.798;11.770;2023-07-29T11:42:49;34.70;43.60
80495;DHT22;69819;48.798;11.770;2023-07-29T11:45:16;34.80;43.70
80495;DHT22;69819;48.798;11.770;2023-07-29T11:47:43;34.80;43.30
80495;DHT22;69819;48.798;11.770;2023-07-29T11:50:12;34.90;43.00
80495;DHT22;69819;48.798;11.770;2023-07-29T11:52:43;34.80;42.40
80495;DHT22;69819;48.798;11.770;2023-07-29T11:55:12;34.80;42.20
80495;DHT22;69819;48.798;11.770;2023-07-29T11:57:40;34.70;42.30
80495;DHT22;69819;48.798;11.770;2023-07-29T12:00:09;34.60;42.50
80495;DHT22;69819;48.798;11.770;2023-07-29T12:02:42;34.60;42.40
80495;DHT22;69819;48.798;11.770;2023-07-29T12:05:12;34.50;42.50
80495;DHT22;69819;48.798;11.770;2023-07-29T12:07:40;34.60;42.40
80495;DHT22;69819;48.798;11.770;2023-07-29T12:10:09;34.50;42.30
80495;DHT22;69819;48.798;11.770;2023-07-29T12:12:50;34.50;42.30
80495;DHT22;69819;48.798;11.770;2023-07-29T12:15:27;34.50;41.80
80495;DHT22;69819;48.798;11.770;2023-07-29T12:17:55;34.50;41.70
80495;DHT22;69819;48.798;11.770;2023-07-29T12:20:22;34.50;42.10
80495;DHT22;69819;48.798;11.770;2023-07-29T12:22:59;34.50;41.90
80495;DHT22;69819;48.798;11.770;2023-07-29T12:25:31;34.50;41.20
80495;DHT22;69819;48.798;11.770;2023-07-29T12:28:03;34.60;42.00
80495;DHT22;69819;48.798;11.770;2023-07-29T12:30:30;34.50;41.70
80495;DHT22;69819;48.798;11.770;2023-07-29T12:32:56;34.50;41.80
80495;DHT22;69819;48.798;11.770;2023-07-29T12:35:22;34.50;41.60
80495;DHT22;69819;48.798;11.770;2023-07-29T12:37:58;34.50;41.50
80495;DHT22;69819;48.798;11.770;2023-07-29T12:40:26;34.50;41.00
80495;DHT22;69819;48.798;11.770;2023-07-29T12:42:53;34.50;41.50
80495;DHT22;69819;48.798;11.770;2023-07-29T12:45:20;34.50;41.30
80495;DHT22;69819;48.798;11.770;2023-07-29T12:47:48;34.40;41.00
80495;DHT22;69819;48.798;11.770;2023-07-29T12:50:14;34.30;40.90
80495;DHT22;69819;48.798;11.770;2023-07-29T12:52:40;34.20;41.00
80495;DHT22;69819;48.798;11.770;2023-07-29T12:55:06;34.00;41.20
80495;DHT22;69819;48.798;11.770;2023-07-29T12:57:34;33.90;41.40
80495;DHT22;69819;48.798;11.770;2023-07-29T13:00:02;33.70;41.50
80495;DHT22;69819;48.798;11.770;2023-07-29T13:02:29;33.60;42.00
80495;DHT22;69819;48.798;11.770;2023-07-29T13:04:55;33.50;42.10
80495;DHT22;69819;48.798;11.770;2023-07-29T13:07:21;33.40;42.40
80495;DHT22;69819;48.798;11.770;2023-07-29T13:09:46;33.30;42.80
80495;DHT22;69819;48.798;11.770;2023-07-29T13:12:12;33.20;42.90
80495;DHT22;69819;48.798;11.770;2023-07-29T13:14:38;33.10;42.90
80495;DHT22;69819;48.798;11.770;2023-07-29T13:17:04;33.00;43.10
80495;DHT22;69819;48.798;11.770;2023-07-29T13:19:30;32.80;43.00
80495;DHT22;69819;48.798;11.770;2023-07-29T13:21:56;32.60;43.20
80495;DHT22;69819;48.798;11.770;2023-07-29T13:24:22;32.40;43.30
80495;DHT22;69819;48.798;11.770;2023-07-29T13:26:47;32.20;43.50
80495;DHT22;69819;48.798;11.770;2023-07-29T13:29:13;32.10;43.90
80495;DHT22;69819;48.798;11.770;2023-07-29T13:31:39;31.90;44.30
80495;DHT22;69819;48.798;11.770;2023-07-29T13:34:05;31.80;44.70
80495;DHT22;69819;48.798;11.770;2023-07-29T13:36:31;31.70;44.90
80495;DHT22;69819;48.798;11.770;2023-07-29T13:38:56;31.60;45.10
80495;DHT22;69819;48.798;11.770;2023-07-29T13:41:22;31.60;45.50
80495;DHT22;69819;48.798;11.770;2023-07-29T13:43:48;31.60;45.40
80495;DHT22;69819;48.798;11.770;2023-07-29T13:46:14;31.60;45.60
80495;DHT22;69819;48.798;11.770;2023-07-29T13:48:39;31.60;45.80
80495;DHT22;69819;48.798;11.770;2023-07-29T13:51:05;31.60;45.70
80495;DHT22;69819;48.798;11.770;2023-07-29T13:53:31;31.70;45.90
80495;DHT22;69819;48.798;11.770;2023-07-29T13:55:57;31.70;45.80
80495;DHT22;69819;48.798;11.770;2023-07-29T13:58:23;31.70;45.50
80495;DHT22;69819;48.798;11.770;2023-07-29T14:00:48;31.70;45.40
80495;DHT22;69819;48.798;11.770;2023-07-29T14:03:14;31.70;45.20
80495;DHT22;69819;48.798;11.770;2023-07-29T14:05:40;31.70;45.20
80495;DHT22;69819;48.798;11.770;2023-07-29T14:08:06;31.60;45.20
80495;DHT22;69819;48.798;11.770;2023-07-29T14:10:32;31.70;45.40
80495;DHT22;69819;48.798;11.770;2023-07-29T14:12:57;31.60;45.40
80495;DHT22;69819;48.798;11.770;2023-07-29T14:15:23;31.60;45.30
80495;DHT22;69819;48.798;11.770;2023-07-29T14:17:49;31.60;45.40
80495;DHT22;69819;48.798;11.770;2023-07-29T14:20:15;31.70;45.50
80495;DHT22;69819;48.798;11.770;2023-07-29T14:22:41;31.70;45.40
80495;DHT22;69819;48.798;11.770;2023-07-29T14:25:07;31.70;45.30
80495;DHT22;69819;48.798;11.770;2023-07-29T14:27:33;31.80;45.40
80495;DHT22;69819;48.798;11.770;2023-07-29T14:29:59;31.90;45.40
80495;DHT22;69819;48.798;11.770;2023-07-29T14:32:25;31.90;45.30
80495;DHT22;69819;48.798;11.770;2023-07-29T14:34:51;32.00;45.10
80495;DHT22;69819;48.798;11.770;2023-07-29T14:37:17;32.00;45.00
80495;DHT22;69819;48.798;11.770;2023-07-29T14:39:43;32.00;44.80
80495;DHT22;69819;48.798;11.770;2023-07-29T14:42:09;32.10;44.80
80495;DHT22;69819;48.798;11.770;2023-07-29T14:44:35;32.10;44.90
80495;DHT22;69819;48.798;11.770;2023-07-29T14:47:01;32.20;44.90
80495;DHT22;69819;48.798;11.770;2023-07-29T14:49:27;32.20;44.90
80495;DHT22;69819;48.798;11.770;2023-07-29T14:51:52;32.30;44.90
80495;DHT22;69819;48.798;11.770;2023-07-29T14:54:19;32.30;44.60
80495;DHT22;69819;48.798;11.770;2023-07-29T14:56:45;32.30;44.50
80495;DHT22;69819;48.798;11.770;2023-07-29T14:59:11;32.40;44.40
80495;DHT22;69819;48.798;11.770;2023-07-29T15:01:36;32.40;44.30
80495;DHT22;69819;48.798;11.770;2023-07-29T15:04:02;32.40;44.30
80495;DHT22;69819;48.798;11.770;2023-07-29T15:06:29;32.40;44.20
80495;DHT22;69819;48.798;11.770;2023-07-29T15:08:55;32.40;44.00
80495;DHT22;69819;48.798;11.770;2023-07-29T15:11:21;32.30;43.90
80495;DHT22;69819;48.798;11.770;2023-07-29T15:13:47;32.30;43.90
80495;DHT22;69819;48.798;11.770;2023-07-29T15:16:13;32.30;43.70
80495;DHT22;69819;48.798;11.770;2023-07-29T15:18:39;32.20;43.50
80495;DHT22;69819;48.798;11.770;2023-07-29T15:21:04;32.20;43.50
80495;DHT22;69819;48.798;11.770;2023-07-29T15:23:30;32.20;43.60
80495;DHT22;69819;48.798;11.770;2023-07-29T15:25:56;32.20;44.20
80495;DHT22;69819;48.798;11.770;2023-07-29T15:28:22;32.20;43.50
80495;DHT22;69819;48.798;11.770;2023-07-29T15:30:48;32.20;43.40
80495;DHT22;69819;48.798;11.770;2023-07-29T15:33:14;32.20;43.40
80495;DHT22;69819;48.798;11.770;2023-07-29T15:35:40;32.20;43.40
80495;DHT22;69819;48.798;11.770;2023-07-29T15:38:06;32.20;43.30
80495;DHT22;69819;48.798;11.770;2023-07-29T15:40:33;32.20;43.20